Portada
METAR-TAF:

METAR-TAF

Aeroports :

Gaya, Índia

latitud: 24-44-40N, longitud: 84-57-04E, altitud: 116 m

Observació

L'informe es va fer fa 20 minuts, a les 10:30 UTC
Vent 6 kt del Nord/Nord-Oest
Temperatura 18°C
Humitat 83%
Pressió
Visibilitat: 1012 m
Núvols disperses a una alçada de 1800 ft
Cel ennuvolat a una alçada de 10000 ft
boirina

METAR: VEGY 251030Z 33006KT 1600 BR SCT018 BKN100 18/15 1012 NOSIG

Hora: 16:20 (10:50 UTC)

Pronòstic

L'informe es va fer fa 2 hores i 50 minuts, a les 08:00 UTC
Pronòstic vàlid del 25 a les 09 UTC al 25 a les 18 UTC
Vent 8 kt del Nord/Nord-Oest
Visibilitat: 2000 m
Núvols disperses a una alçada de 1800 ft
Cel ennuvolat a una alçada de 10000 ft
fum, boirina
Evolucionant progressivament
l' 25 a les 15 UTC al 25 a les 17 UTC
Vent kt del Nord
Visibilitat: 1400 m
Escasses núvols a una alçada de 1800 ft
Núvols disperses a una alçada de 10000 ft
boirina

TAF: VEGY 250800Z 2509/2518 33008KT 2000 FU BR SCT018 BKN100 BECMG 2515/2517 00000KT 1400 BR FEW018 SCT100

Observacions i pronòstics meteorològics de més de 4000 aeroports (METAR i TAF).

Les estacions disponibles són els punts grocs i vermells al mapa.

Posi el ratolí al punt desitjat per veure el nom de l'estació.

Feu clic per veure les observacions i els pronòstics meteorològics.

Per canviar el mapa: feu clic els botons verds amb una creu de color negre per apropar; al botó verd amb un guió per allunyar la imatge; o en les fletxes verdes per a mapes adjacents.


METAR-TAF: